createdAt,value
2018-02-11T00:01:37.060Z,2.80
2018-02-11T00:04:04.496Z,2.70
2018-02-11T00:06:31.933Z,2.70
2018-02-11T00:09:00.145Z,2.70
2018-02-11T00:11:27.574Z,2.70
2018-02-11T00:13:55.862Z,2.70
2018-02-11T00:16:23.307Z,2.70
2018-02-11T00:18:51.525Z,2.70
2018-02-11T00:21:18.958Z,2.60
2018-02-11T00:23:46.415Z,2.70
2018-02-11T00:26:13.854Z,2.70
2018-02-11T00:28:42.081Z,2.60
2018-02-11T00:31:09.522Z,2.60
2018-02-11T00:33:37.003Z,2.60
2018-02-11T00:36:04.446Z,2.60
2018-02-11T00:38:31.905Z,2.70
2018-02-11T00:40:59.351Z,2.60
2018-02-11T00:43:26.792Z,2.70
2018-02-11T00:45:54.234Z,2.70
2018-02-11T00:48:21.685Z,2.70
2018-02-11T00:50:49.903Z,2.60
2018-02-11T00:53:17.349Z,2.50
2018-02-11T00:55:44.832Z,2.60
2018-02-11T00:58:12.277Z,2.60
2018-02-11T01:00:39.804Z,2.60
2018-02-11T01:03:08.007Z,2.50
2018-02-11T01:05:35.450Z,2.50
2018-02-11T01:08:03.892Z,2.50
2018-02-11T01:10:31.335Z,2.50
2018-02-11T01:12:58.780Z,2.50
2018-02-11T01:15:26.231Z,2.50
2018-02-11T01:17:53.673Z,2.50
2018-02-11T01:20:21.144Z,2.60
2018-02-11T01:22:48.651Z,2.60
2018-02-11T01:25:16.852Z,2.60
2018-02-11T01:27:44.309Z,2.60
2018-02-11T01:30:11.751Z,2.60
2018-02-11T01:32:39.195Z,2.60
2018-02-11T01:35:07.475Z,2.40
2018-02-11T01:37:35.779Z,2.40
2018-02-11T01:40:03.210Z,2.40
2018-02-11T01:42:31.415Z,2.50
2018-02-11T01:44:58.861Z,2.50
2018-02-11T01:47:26.300Z,2.50
2018-02-11T01:50:05.720Z,2.50
2018-02-11T01:52:33.940Z,2.30
2018-02-11T01:55:01.375Z,2.20
2018-02-11T01:57:28.841Z,2.30
2018-02-11T01:59:56.281Z,2.30
2018-02-11T02:02:24.490Z,2.30
2018-02-11T02:04:51.948Z,2.30
2018-02-11T02:07:19.386Z,2.30
2018-02-11T02:09:46.845Z,2.30
2018-02-11T02:12:14.321Z,2.30
2018-02-11T02:14:41.776Z,2.30
2018-02-11T02:17:09.320Z,2.30
2018-02-11T02:19:36.764Z,2.30
2018-02-11T02:22:04.209Z,2.30
2018-02-11T02:24:32.429Z,2.30
2018-02-11T02:26:59.868Z,2.30
2018-02-11T02:29:27.308Z,2.30
2018-02-11T02:31:54.750Z,2.30
2018-02-11T02:34:22.982Z,2.30
2018-02-11T02:36:50.428Z,2.30
2018-02-11T02:39:17.892Z,2.30
2018-02-11T02:41:45.367Z,2.30
2018-02-11T02:44:12.819Z,2.30
2018-02-11T02:46:40.266Z,2.30
2018-02-11T02:49:07.746Z,2.30
2018-02-11T02:51:35.194Z,2.40
2018-02-11T02:54:02.644Z,2.40
2018-02-11T02:56:30.096Z,2.40
2018-02-11T02:58:57.564Z,2.40
2018-02-11T03:01:25.020Z,2.40
2018-02-11T03:03:52.477Z,2.30
2018-02-11T03:06:19.936Z,2.30
2018-02-11T03:08:47.861Z,2.30
2018-02-11T03:11:16.090Z,2.40
2018-02-11T03:13:43.540Z,2.30
2018-02-11T03:16:10.994Z,2.40
2018-02-11T03:18:38.440Z,2.40
2018-02-11T03:21:05.976Z,2.40
2018-02-11T03:23:33.411Z,2.40
2018-02-11T03:26:01.633Z,2.50
2018-02-11T03:28:29.084Z,2.40
2018-02-11T03:30:56.544Z,2.40
2018-02-11T03:33:23.977Z,2.40
2018-02-11T03:35:51.421Z,2.40
2018-02-11T03:38:19.631Z,2.40
2018-02-11T03:40:47.093Z,2.40
2018-02-11T03:43:14.547Z,2.40
2018-02-11T03:45:41.985Z,2.40
2018-02-11T03:48:09.429Z,2.40
2018-02-11T03:50:36.876Z,2.50
2018-02-11T03:53:05.090Z,2.50
2018-02-11T03:55:32.597Z,2.50
2018-02-11T03:58:00.009Z,2.50
2018-02-11T04:00:27.538Z,2.50
2018-02-11T04:02:54.981Z,2.50
2018-02-11T04:05:23.191Z,2.60
2018-02-11T04:07:51.650Z,2.60
2018-02-11T04:10:19.875Z,2.60
2018-02-11T04:12:47.315Z,2.60
2018-02-11T04:15:14.772Z,2.60
2018-02-11T04:17:42.232Z,2.50
2018-02-11T04:20:09.685Z,2.50
2018-02-11T04:22:37.214Z,2.60
2018-02-11T04:25:05.421Z,2.60
2018-02-11T04:27:32.866Z,2.60
2018-02-11T04:30:00.323Z,2.60
2018-02-11T04:32:27.765Z,2.50
2018-02-11T04:34:55.213Z,2.60
2018-02-11T04:37:23.438Z,2.60
2018-02-11T04:39:50.894Z,2.60
2018-02-11T04:42:18.326Z,2.70
2018-02-11T04:44:45.776Z,2.60
2018-02-11T04:47:13.214Z,2.70
2018-02-11T04:49:41.430Z,2.70
2018-02-11T04:52:08.888Z,2.70
2018-02-11T04:54:36.339Z,2.70
2018-02-11T04:57:03.793Z,2.80
2018-02-11T04:59:31.225Z,2.80
2018-02-11T05:01:58.734Z,2.80
2018-02-11T05:04:26.171Z,2.80
2018-02-11T05:06:53.629Z,2.80
2018-02-11T05:09:21.081Z,2.80
2018-02-11T05:11:48.524Z,2.90
2018-02-11T05:14:15.965Z,2.80
2018-02-11T05:16:44.175Z,2.80
2018-02-11T05:19:11.629Z,2.80
2018-02-11T05:21:39.072Z,2.80
2018-02-11T05:24:06.523Z,2.80
2018-02-11T05:26:33.964Z,2.70
2018-02-11T05:29:02.180Z,2.60
2018-02-11T05:31:29.636Z,2.60
2018-02-11T05:33:57.083Z,2.60
2018-02-11T05:36:24.532Z,2.50
2018-02-11T05:38:51.974Z,2.40
2018-02-11T05:41:20.180Z,2.40
2018-02-11T05:43:47.638Z,2.40
2018-02-11T05:46:15.085Z,2.40
2018-02-11T05:48:42.513Z,2.20
2018-02-11T05:51:10.739Z,2.10
2018-02-11T05:53:38.195Z,2.10
2018-02-11T05:56:05.637Z,2.10
2018-02-11T05:58:33.096Z,2.00
2018-02-11T06:01:00.603Z,2.00
2018-02-11T06:03:28.046Z,2.00
2018-02-11T06:05:55.553Z,2.00
2018-02-11T06:08:24.050Z,2.00
2018-02-11T06:10:52.500Z,2.00
2018-02-11T06:13:20.709Z,1.90
2018-02-11T06:15:48.234Z,1.90
2018-02-11T06:18:16.517Z,1.90
2018-02-11T06:20:43.961Z,1.90
2018-02-11T06:23:12.260Z,1.80
2018-02-11T06:25:39.695Z,1.80
2018-02-11T06:28:07.921Z,1.70
2018-02-11T06:30:36.365Z,1.70
2018-02-11T06:33:03.802Z,1.70
2018-02-11T06:35:32.033Z,1.60
2018-02-11T06:37:59.557Z,1.50
2018-02-11T06:40:27.015Z,1.50
2018-02-11T06:42:55.215Z,1.40
2018-02-11T06:45:22.670Z,1.50
2018-02-11T06:47:50.124Z,1.50
2018-02-11T06:50:17.581Z,1.40
2018-02-11T06:52:45.116Z,1.40
2018-02-11T06:55:12.569Z,1.50
2018-02-11T06:57:40.790Z,1.60
2018-02-11T07:00:08.240Z,1.50
2018-02-11T07:02:35.692Z,1.60
2018-02-11T07:05:03.142Z,1.60
2018-02-11T07:07:30.592Z,1.60
2018-02-11T07:09:58.045Z,1.70
2018-02-11T07:12:25.495Z,1.60
2018-02-11T07:14:52.945Z,1.60
2018-02-11T07:17:21.165Z,1.60
2018-02-11T07:19:48.684Z,1.60
2018-02-11T07:22:16.893Z,1.60
2018-02-11T07:24:44.344Z,1.60
2018-02-11T07:27:11.788Z,1.60
2018-02-11T07:29:39.254Z,1.70
2018-02-11T07:32:06.700Z,1.60
2018-02-11T07:34:34.142Z,1.60
2018-02-11T07:37:02.356Z,1.50
2018-02-11T07:39:29.814Z,1.50
2018-02-11T07:41:59.293Z,1.50
2018-02-11T07:44:26.720Z,1.50
2018-02-11T07:46:54.935Z,1.50
2018-02-11T07:49:22.383Z,1.50
2018-02-11T07:51:49.834Z,1.60
2018-02-11T07:54:17.269Z,1.50
2018-02-11T07:56:45.487Z,1.60
2018-02-11T07:59:12.918Z,1.60
2018-02-11T08:01:40.368Z,1.60
2018-02-11T08:04:08.572Z,1.70
2018-02-11T08:06:36.020Z,1.70
2018-02-11T08:09:03.463Z,1.70
2018-02-11T08:11:30.913Z,1.70
2018-02-11T08:13:59.134Z,1.70
2018-02-11T08:16:27.568Z,1.70
2018-02-11T08:18:55.785Z,1.70
2018-02-11T08:21:23.235Z,1.70
2018-02-11T08:23:50.689Z,1.80
2018-02-11T08:26:18.124Z,1.80
2018-02-11T08:28:45.568Z,1.80
2018-02-11T08:31:13.833Z,1.90
2018-02-11T08:33:41.264Z,1.90
2018-02-11T08:36:08.704Z,1.90
2018-02-11T08:38:36.157Z,1.90
2018-02-11T08:41:03.627Z,1.90
2018-02-11T08:43:31.084Z,1.90
2018-02-11T08:45:58.542Z,1.90
2018-02-11T08:48:25.968Z,2.00
2018-02-11T08:50:53.462Z,2.00
2018-02-11T08:53:20.852Z,2.00
2018-02-11T08:55:49.071Z,2.10
2018-02-11T08:58:16.503Z,2.10
2018-02-11T09:00:43.956Z,2.10
2018-02-11T09:03:11.406Z,2.10
2018-02-11T09:05:39.632Z,2.10
2018-02-11T09:08:07.071Z,2.10
2018-02-11T09:10:34.521Z,2.10
2018-02-11T09:13:01.958Z,2.10
2018-02-11T09:15:30.165Z,2.10
2018-02-11T09:17:57.599Z,2.10
2018-02-11T09:20:25.041Z,2.20
2018-02-11T09:22:53.255Z,2.20
2018-02-11T09:25:20.699Z,2.20
2018-02-11T09:27:48.151Z,2.30
2018-02-11T09:30:15.603Z,2.30
2018-02-11T09:32:43.093Z,2.30
2018-02-11T09:35:11.252Z,2.40
2018-02-11T09:37:38.689Z,2.40
2018-02-11T09:40:06.130Z,2.40
2018-02-11T09:42:34.348Z,2.50
2018-02-11T09:45:01.792Z,2.50
2018-02-11T09:47:29.231Z,2.60
2018-02-11T09:49:56.684Z,2.60
2018-02-11T09:52:24.900Z,2.70
2018-02-11T09:54:52.358Z,2.60
2018-02-11T09:57:19.859Z,2.70
2018-02-11T09:59:47.248Z,2.80
2018-02-11T10:02:14.688Z,2.80
2018-02-11T10:04:42.923Z,2.80
2018-02-11T10:07:10.444Z,2.80
2018-02-11T10:09:37.897Z,2.90
2018-02-11T10:12:05.335Z,2.90
2018-02-11T10:14:33.555Z,3.00
2018-02-11T10:17:01.008Z,2.90
2018-02-11T10:19:28.447Z,3.00
2018-02-11T10:21:55.897Z,3.10
2018-02-11T10:24:23.336Z,3.10
2018-02-11T10:26:51.537Z,3.10
2018-02-11T10:29:18.975Z,3.10
2018-02-11T10:31:47.181Z,3.10
2018-02-11T10:34:14.655Z,3.10
2018-02-11T10:36:42.115Z,3.10
2018-02-11T10:39:09.567Z,3.10
2018-02-11T10:41:37.015Z,3.20
2018-02-11T10:44:04.452Z,3.20
2018-02-11T10:46:31.907Z,3.20
2018-02-11T10:48:59.330Z,3.20
2018-02-11T10:51:26.802Z,3.30
2018-02-11T10:53:54.259Z,3.30
2018-02-11T10:56:22.452Z,3.40
2018-02-11T10:58:49.896Z,3.40
2018-02-11T11:01:18.102Z,3.50
2018-02-11T11:03:45.544Z,3.50
2018-02-11T11:06:53.945Z,3.60
2018-02-11T11:09:23.232Z,3.70
2018-02-11T11:11:51.438Z,3.80
2018-02-11T11:14:18.902Z,3.80
2018-02-11T11:16:46.341Z,3.90
2018-02-11T11:19:17.767Z,4.20
2018-02-11T11:21:45.251Z,4.20
2018-02-11T11:24:13.466Z,4.40
2018-02-11T11:26:40.893Z,4.40
2018-02-11T11:29:08.333Z,4.50
2018-02-11T11:31:39.985Z,4.70
2018-02-11T11:34:08.297Z,4.80
2018-02-11T11:36:35.728Z,4.80
2018-02-11T11:39:03.948Z,4.80
2018-02-11T11:41:31.389Z,4.80
2018-02-11T11:43:58.843Z,4.90
2018-02-11T11:46:26.283Z,5.10
2018-02-11T11:48:53.731Z,5.20
2018-02-11T11:51:21.931Z,5.50
2018-02-11T11:53:49.361Z,5.50
2018-02-11T11:56:17.563Z,5.70
2018-02-11T11:58:44.994Z,5.70
2018-02-11T12:01:13.225Z,5.90
2018-02-11T12:03:40.674Z,5.90
2018-02-11T12:06:08.109Z,6.00
2018-02-11T12:08:35.548Z,6.00
2018-02-11T12:11:02.985Z,6.00
2018-02-11T12:13:31.301Z,5.90
2018-02-11T12:16:00.787Z,5.90
2018-02-11T12:18:28.989Z,5.90
2018-02-11T12:20:56.542Z,5.90
2018-02-11T12:23:23.984Z,5.90
2018-02-11T12:25:51.408Z,5.90
2018-02-11T12:28:18.865Z,5.90
2018-02-11T12:30:46.330Z,6.00
2018-02-11T12:33:14.570Z,6.10
2018-02-11T12:35:42.016Z,6.10
2018-02-11T12:38:13.222Z,6.20
2018-02-11T12:40:41.429Z,6.20
2018-02-11T12:43:09.873Z,6.30
2018-02-11T12:45:39.075Z,6.20
2018-02-11T12:48:07.279Z,6.10
2018-02-11T12:50:34.707Z,6.10
2018-02-11T12:53:02.359Z,6.10
2018-02-11T12:55:30.568Z,6.00
2018-02-11T12:57:58.002Z,6.00
2018-02-11T13:00:26.267Z,5.90
2018-02-11T13:02:54.476Z,6.00
2018-02-11T13:05:21.939Z,5.90
2018-02-11T13:07:49.370Z,6.00
2018-02-11T13:10:16.803Z,6.00
2018-02-11T13:12:45.083Z,6.00
2018-02-11T13:15:13.300Z,5.90
2018-02-11T13:17:40.735Z,5.90
2018-02-11T13:20:08.940Z,6.00
2018-02-11T13:22:36.362Z,6.00
2018-02-11T13:25:03.808Z,6.00
2018-02-11T13:27:32.021Z,6.00
2018-02-11T13:29:59.450Z,6.00
2018-02-11T13:32:27.657Z,6.10
2018-02-11T13:34:55.105Z,6.10
2018-02-11T13:37:22.536Z,6.10
2018-02-11T13:39:50.751Z,6.10
2018-02-11T13:42:18.269Z,6.10
2018-02-11T13:44:46.470Z,6.20
2018-02-11T13:47:13.940Z,6.20
2018-02-11T13:49:41.363Z,6.10
2018-02-11T13:52:09.569Z,6.00
2018-02-11T13:54:36.995Z,6.00
2018-02-11T13:57:04.428Z,6.10
2018-02-11T13:59:31.916Z,6.00
2018-02-11T14:01:59.363Z,6.00
2018-02-11T14:04:27.560Z,5.90
2018-02-11T14:06:55.005Z,5.90
2018-02-11T14:09:23.215Z,5.80
2018-02-11T14:11:50.648Z,5.70
2018-02-11T14:14:18.077Z,5.70
2018-02-11T14:16:46.271Z,5.60
2018-02-11T14:19:13.716Z,5.60
2018-02-11T14:21:41.966Z,5.50
2018-02-11T14:24:09.355Z,5.50
2018-02-11T14:26:37.551Z,5.40
2018-02-11T14:29:04.987Z,5.40
2018-02-11T14:31:33.471Z,5.40
2018-02-11T14:34:00.908Z,5.50
2018-02-11T14:36:29.111Z,5.50
2018-02-11T14:38:56.560Z,5.50
2018-02-11T14:41:23.994Z,5.50
2018-02-11T14:43:51.428Z,5.60
2018-02-11T14:46:18.860Z,5.60
2018-02-11T14:48:46.380Z,5.60
2018-02-11T14:51:14.695Z,5.60
2018-02-11T14:53:42.155Z,5.60
2018-02-11T14:56:09.604Z,5.60
2018-02-11T14:58:37.064Z,5.50
2018-02-11T15:01:05.303Z,5.50
2018-02-11T15:03:33.511Z,5.50
2018-02-11T15:06:00.944Z,5.50
2018-02-11T15:08:28.384Z,5.60
2018-02-11T15:10:56.680Z,5.60
2018-02-11T15:13:24.118Z,5.60
2018-02-11T15:18:26.960Z,5.70
2018-02-11T15:20:54.412Z,5.70
2018-02-11T15:23:21.854Z,5.70
2018-02-11T15:25:49.310Z,5.70
2018-02-11T15:28:16.744Z,5.70
2018-02-11T15:30:44.184Z,5.70
2018-02-11T15:33:11.617Z,5.70
2018-02-11T15:35:39.055Z,5.80
2018-02-11T15:38:06.499Z,5.90
2018-02-11T15:40:33.940Z,5.90
2018-02-11T15:43:02.146Z,5.80
2018-02-11T15:45:29.589Z,5.80
2018-02-11T15:47:57.016Z,5.70
2018-02-11T15:50:25.235Z,5.60
2018-02-11T15:52:52.672Z,5.60
2018-02-11T15:55:20.503Z,5.70
2018-02-11T15:57:47.943Z,5.80
2018-02-11T16:00:15.414Z,5.70
2018-02-11T16:02:42.853Z,5.70
2018-02-11T16:05:10.282Z,5.70
2018-02-11T16:07:37.721Z,5.80
2018-02-11T16:10:05.157Z,5.70
2018-02-11T16:12:33.379Z,5.80
2018-02-11T16:15:00.862Z,5.80
2018-02-11T16:17:28.305Z,5.80
2018-02-11T16:19:55.723Z,5.80
2018-02-11T16:22:23.207Z,5.70
2018-02-11T16:24:50.624Z,5.70
2018-02-11T16:27:18.873Z,5.60
2018-02-11T16:29:46.306Z,5.60
2018-02-11T16:32:13.780Z,5.40
2018-02-11T16:34:41.276Z,5.50
2018-02-11T16:37:09.552Z,5.40
2018-02-11T16:39:37.860Z,5.30
2018-02-11T16:42:05.390Z,5.30
2018-02-11T16:44:33.009Z,5.30
2018-02-11T16:47:00.445Z,5.20
2018-02-11T16:49:27.978Z,5.20
2018-02-11T16:51:55.443Z,5.30
2018-02-11T16:54:23.647Z,5.20
2018-02-11T16:56:51.103Z,5.20
2018-02-11T16:59:18.533Z,5.20
2018-02-11T17:01:47.012Z,5.30
2018-02-11T17:04:14.441Z,5.30
2018-02-11T17:06:42.676Z,5.30
2018-02-11T17:09:10.101Z,5.30
2018-02-11T17:11:37.520Z,5.30
2018-02-11T17:14:04.961Z,5.30
2018-02-11T17:16:32.401Z,5.40
2018-02-11T17:18:59.841Z,5.30
2018-02-11T17:21:27.282Z,5.30
2018-02-11T17:23:54.715Z,5.30
2018-02-11T17:26:22.932Z,5.30
2018-02-11T17:28:50.406Z,5.30
2018-02-11T17:31:17.876Z,5.30
2018-02-11T17:33:45.320Z,5.20
2018-02-11T17:36:12.744Z,5.20
2018-02-11T17:38:41.195Z,5.20
2018-02-11T17:41:10.395Z,5.10
2018-02-11T17:43:38.600Z,5.20
2018-02-11T17:46:06.033Z,5.10
2018-02-11T17:48:34.246Z,5.00
2018-02-11T17:51:01.686Z,5.00
2018-02-11T17:53:29.137Z,5.00
2018-02-11T17:55:56.572Z,4.90
2018-02-11T17:58:24.003Z,5.00
2018-02-11T18:00:51.585Z,5.00
2018-02-11T18:03:19.049Z,5.00
2018-02-11T18:05:47.254Z,4.90
2018-02-11T18:08:16.748Z,4.90
2018-02-11T18:10:44.184Z,4.90
2018-02-11T18:13:12.384Z,4.90
2018-02-11T18:15:39.840Z,4.90
2018-02-11T18:18:07.266Z,4.90
2018-02-11T18:20:34.706Z,4.80
2018-02-11T18:23:03.117Z,4.90
2018-02-11T18:25:31.487Z,4.80
2018-02-11T18:27:59.692Z,4.80
2018-02-11T18:30:27.140Z,4.80
2018-02-11T18:32:54.586Z,4.80
2018-02-11T18:35:23.003Z,4.80
2018-02-11T18:37:51.282Z,4.70
2018-02-11T18:40:18.736Z,4.70
2018-02-11T18:42:46.204Z,4.70
2018-02-11T18:45:13.643Z,4.70
2018-02-11T18:47:41.832Z,4.70
2018-02-11T18:50:09.284Z,4.70
2018-02-11T18:52:36.718Z,4.70
2018-02-11T18:55:04.167Z,4.60
2018-02-11T18:57:32.365Z,4.60
2018-02-11T18:59:59.883Z,4.60
2018-02-11T19:02:27.372Z,4.60
2018-02-11T19:04:55.564Z,4.60
2018-02-11T19:07:23.006Z,4.60
2018-02-11T19:09:50.436Z,4.60
2018-02-11T19:12:18.633Z,4.50
2018-02-11T19:14:46.198Z,4.50
2018-02-11T19:17:13.654Z,4.50
2018-02-11T19:19:41.090Z,4.30
2018-02-11T19:22:09.333Z,4.30
2018-02-11T19:24:36.793Z,4.30
2018-02-11T19:27:04.238Z,4.30
2018-02-11T19:29:32.448Z,4.20
2018-02-11T19:32:00.657Z,4.10
2018-02-11T19:34:28.106Z,4.10
2018-02-11T19:36:55.562Z,4.00
2018-02-11T19:39:23.037Z,3.90
2018-02-11T19:41:50.475Z,3.90
2018-02-11T19:44:17.909Z,3.90
2018-02-11T19:46:46.162Z,3.80
2018-02-11T19:49:13.652Z,3.80
2018-02-11T19:51:41.859Z,3.70
2018-02-11T19:54:09.353Z,3.70
2018-02-11T19:56:36.804Z,3.70
2018-02-11T19:59:04.258Z,3.60
2018-02-11T20:01:31.726Z,3.60
2018-02-11T20:03:59.169Z,3.60
2018-02-11T20:06:26.624Z,3.50
2018-02-11T20:08:55.152Z,3.50
2018-02-11T20:11:23.399Z,3.50
2018-02-11T20:13:50.852Z,3.50
2018-02-11T20:16:18.303Z,3.40
2018-02-11T20:18:45.743Z,3.40
2018-02-11T20:21:13.165Z,3.40
2018-02-11T20:23:41.433Z,3.30
2018-02-11T20:26:09.653Z,3.30
2018-02-11T20:28:37.100Z,3.30
2018-02-11T20:31:04.552Z,3.30
2018-02-11T20:33:31.992Z,3.40
2018-02-11T20:35:59.431Z,3.30
2018-02-11T20:38:28.639Z,3.20
2018-02-11T20:40:56.077Z,3.20
2018-02-11T20:43:23.508Z,3.30
2018-02-11T20:45:50.958Z,3.30
2018-02-11T20:48:18.427Z,3.20
2018-02-11T20:50:45.881Z,3.30
2018-02-11T20:53:13.323Z,3.10
2018-02-11T20:55:40.773Z,3.10
2018-02-11T20:58:08.218Z,3.20
2018-02-11T21:00:35.655Z,3.10
2018-02-11T21:03:03.109Z,3.10
2018-02-11T21:05:31.322Z,3.00
2018-02-11T21:07:58.782Z,3.00
2018-02-11T21:10:26.241Z,3.10
2018-02-11T21:12:53.686Z,3.10
2018-02-11T21:15:21.169Z,3.20
2018-02-11T21:17:48.610Z,3.20
2018-02-11T21:20:17.055Z,3.20
2018-02-11T21:22:44.490Z,3.30
2018-02-11T21:25:12.714Z,3.40
2018-02-11T21:27:40.190Z,3.30
2018-02-11T21:30:07.640Z,3.40
2018-02-11T21:32:35.075Z,3.30
2018-02-11T21:35:02.552Z,3.30
2018-02-11T21:37:29.995Z,3.30
2018-02-11T21:39:57.472Z,3.30
2018-02-11T21:42:24.887Z,3.40
2018-02-11T21:44:52.359Z,3.40
2018-02-11T21:47:19.827Z,3.30
2018-02-11T21:49:47.329Z,3.20
2018-02-11T21:52:14.771Z,3.30
2018-02-11T21:54:44.194Z,3.40
2018-02-11T21:57:11.634Z,3.40
2018-02-11T21:59:39.085Z,3.40
2018-02-11T22:02:06.536Z,3.40
2018-02-11T22:04:33.979Z,3.40
2018-02-11T22:07:01.424Z,3.50
2018-02-11T22:09:28.859Z,3.40
2018-02-11T22:11:56.322Z,3.50
2018-02-11T22:14:24.522Z,3.60
2018-02-11T22:16:51.965Z,3.60
2018-02-11T22:19:19.410Z,3.60
2018-02-11T22:21:46.873Z,3.60
2018-02-11T22:24:14.313Z,3.60
2018-02-11T22:26:41.783Z,3.60
2018-02-11T22:29:09.223Z,3.60
2018-02-11T22:31:37.460Z,3.60
2018-02-11T22:34:04.908Z,3.60
2018-02-11T22:36:32.416Z,3.60
2018-02-11T22:39:00.634Z,3.60
2018-02-11T22:41:28.093Z,3.60
2018-02-11T22:43:55.542Z,3.60
2018-02-11T22:46:22.974Z,3.60
2018-02-11T22:48:50.432Z,3.50
2018-02-11T22:51:17.868Z,3.60
2018-02-11T22:53:45.312Z,3.60
2018-02-11T22:56:12.760Z,3.50
2018-02-11T22:58:40.226Z,3.50
2018-02-11T23:01:07.675Z,3.40
2018-02-11T23:03:35.132Z,3.30
2018-02-11T23:06:02.598Z,3.30
2018-02-11T23:08:30.045Z,3.20
2018-02-11T23:10:57.494Z,3.20
2018-02-11T23:13:25.052Z,3.10
2018-02-11T23:15:52.504Z,3.10
2018-02-11T23:18:19.959Z,3.10
2018-02-11T23:20:47.390Z,3.00
2018-02-11T23:23:14.847Z,3.00
2018-02-11T23:25:42.306Z,3.00
2018-02-11T23:28:09.735Z,3.00
2018-02-11T23:30:39.980Z,2.90
2018-02-11T23:33:07.405Z,2.90
2018-02-11T23:35:34.852Z,2.80
2018-02-11T23:38:02.305Z,2.80
2018-02-11T23:40:29.763Z,2.80
2018-02-11T23:42:57.208Z,2.80
2018-02-11T23:45:24.668Z,2.80
2018-02-11T23:47:52.869Z,2.80
2018-02-11T23:50:20.325Z,2.70
2018-02-11T23:52:47.761Z,2.70
2018-02-11T23:55:15.213Z,2.80
2018-02-11T23:57:42.651Z,2.80
